Franklin, NC

8:51 AM EDT on October 22, 2017 (GMT -0400)
Franklin

Weather History for K1A5 - February, 2014

Change the Weather History Date:

Friday, February 14, 2014

  Actual Average (KTOC) Record (KTOC)
Temperature  
Mean Temperature 35 °F -  
Max Temperature 55 °F 55 °F 73 °F (2017)
Min Temperature 16 °F 33 °F 26 °F (2015)
Degree Days  
Heating Degree Days 30    
Moisture  
Dew Point 23 °F    
Average Humidity 68    
Maximum Humidity 97    
Minimum Humidity 27    
Precipitation  
Precipitation 0.03 in - - ()
Sea Level Pressure  
Sea Level Pressure 29.79 in    
Wind  
Wind Speed 1 mph (SW)    
Max Wind Speed 13 mph    
Max Gust Speed 26 mph    
Visibility 10 miles    
Events Rain    
Averages and records for this station are not official NWS values.
T = Trace of Precipitation, MM = Missing Value Source: NWS Daily Summary

Daily Weather History Graph

Daily Weather History Graph

Search for Another Location

Airport or City:

Trip Planner

Search our weather history database for the weather conditions in past years. The results will help you decide how hot, cold, wet, or windy it might be!

Date:

Astronomy

Feb. 14, 2014 Rise Set
Actual Time 7:20 AM EST 6:15 PM EST
Civil Twilight 6:54 AM EST 6:41 PM EST
Nautical Twilight 6:25 AM EST 7:11 PM EST
Astronomical Twilight 5:55 AM EST 7:40 PM EST
Moon 6:16 PM EST (2/14) 6:48 AM EST (2/14)
Length of Visible Light 11h 46m
Length of Day
10h 54m
Full, 100% of the Moon is Illuminated
Feb 14
Full
Feb 14
Full
Feb 22
Last Quarter
Mar 1
New
Mar 8
First Quarter

Hourly Weather History & Observations

Time (EST) Temp. Windchill Dew Point Humidity Pressure Visibility Wind Dir Wind Speed Gust Speed Precip Events Conditions
12:15 AM 20.3 °F - 18.5 °F 93% 29.81 in 10.0 mi Calm Calm - N/A   Clear
12:35 AM 19.4 °F - 17.6 °F 93% 29.82 in 10.0 mi Calm Calm - N/A   Clear
12:55 AM 19.8 °F - 18.1 °F 93% 29.82 in 10.0 mi Calm Calm - N/A   Clear
1:15 AM 19.6 °F - 17.8 °F 93% 29.83 in 10.0 mi Calm Calm - N/A   Clear
1:35 AM 19.4 °F - 17.6 °F 93% 29.84 in 10.0 mi Calm Calm - N/A   Clear
1:55 AM 19.8 °F - 18.0 °F 93% 29.84 in 10.0 mi Calm Calm - N/A   Clear
2:15 AM 20.1 °F - 18.3 °F 93% 29.84 in 10.0 mi Calm Calm - N/A   Clear
2:35 AM 18.5 °F - 16.7 °F 93% 29.84 in 10.0 mi Calm Calm - N/A   Clear
2:55 AM 18.7 °F - 16.7 °F 92% 29.83 in 10.0 mi Calm Calm - N/A   Clear
3:15 AM 18.3 °F - 16.3 °F 92% 29.83 in 10.0 mi Calm Calm - N/A   Clear
3:35 AM 17.8 °F - 15.8 °F 92% 29.83 in 10.0 mi Calm Calm - N/A   Clear
3:55 AM 18.1 °F - 16.0 °F 91% 29.82 in 10.0 mi Calm Calm - N/A   Clear
4:15 AM 18.0 °F - 15.8 °F 91% 29.82 in 10.0 mi Calm Calm - N/A   Clear
4:35 AM 17.4 °F - 15.3 °F 91% 29.82 in 10.0 mi Calm Calm - N/A   Clear
4:55 AM 17.6 °F - 15.4 °F 91% 29.84 in 10.0 mi Calm Calm - N/A   Clear
5:15 AM 17.4 °F - 14.9 °F 90% 29.85 in 10.0 mi Calm Calm - N/A   Clear
5:35 AM 17.6 °F - 15.4 °F 91% 29.84 in 10.0 mi Calm Calm - N/A   Clear
5:55 AM 17.1 °F - 14.7 °F 91% 29.85 in 10.0 mi Calm Calm - N/A   Clear
6:15 AM 17.2 °F - 14.9 °F 91% 29.85 in 10.0 mi Calm Calm - N/A   Clear
6:35 AM 16.9 °F - 14.5 °F 91% 29.86 in 10.0 mi Calm Calm - N/A   Clear
6:55 AM 16.9 °F - 14.5 °F 91% 29.86 in 10.0 mi Calm Calm - N/A   Clear
7:15 AM 17.8 °F - 15.6 °F 91% 29.87 in 10.0 mi Calm Calm - N/A   Clear
7:35 AM 17.6 °F - 15.3 °F 91% 29.86 in 10.0 mi Calm Calm - N/A   Clear
7:55 AM 17.4 °F - 14.9 °F 90% 29.87 in 10.0 mi Calm Calm - N/A   Clear
8:15 AM 18.9 °F - 16.5 °F 91% 29.87 in 10.0 mi Calm Calm - N/A   Clear
8:35 AM 21.0 °F - 18.5 °F 90% 29.87 in 10.0 mi Calm Calm - N/A   Clear
8:55 AM 22.8 °F - 20.5 °F 91% 29.87 in 10.0 mi Calm Calm - N/A   Clear
9:15 AM 25.9 °F - 23.0 °F 89% 29.87 in 10.0 mi Calm Calm - N/A   Clear
9:35 AM 28.6 °F - 24.6 °F 85% 29.86 in 10.0 mi Calm Calm - N/A   Clear
9:55 AM 31.1 °F - 24.4 °F 76% 29.86 in 10.0 mi Calm Calm - N/A   Clear
10:15 AM 33.6 °F - 26.2 °F 74% 29.85 in 10.0 mi Calm Calm - N/A   Clear
10:35 AM 36.9 °F - 24.4 °F 61% 29.85 in 10.0 mi Calm Calm - N/A   Clear
10:55 AM 41.4 °F - 26.2 °F 55% 29.85 in 10.0 mi Calm Calm - N/A   Clear
11:15 AM 42.1 °F - 23.2 °F 47% 29.86 in 10.0 mi Calm Calm - N/A   Clear
11:35 AM 44.2 °F - 23.5 °F 44% 29.85 in 10.0 mi Calm Calm - N/A   Clear
11:55 AM 46.6 °F - 23.9 °F 41% 29.83 in 10.0 mi Calm Calm - N/A   Clear
12:15 PM 47.3 °F - 24.8 °F 41% 29.83 in 10.0 mi Calm Calm - N/A   Clear
12:35 PM 48.7 °F - 25.0 °F 40% 29.83 in 10.0 mi Calm Calm - N/A   Clear
12:55 PM 48.7 °F - 24.6 °F 39% 29.83 in 10.0 mi Calm Calm - N/A   Clear
1:15 PM 51.1 °F - 24.6 °F 36% 29.82 in 10.0 mi Calm Calm - N/A   Clear
1:35 PM 52.0 °F - 26.2 °F 37% 29.80 in 10.0 mi ENE 3.5 mph - N/A   Clear
1:55 PM 51.8 °F - 24.8 °F 35% 29.78 in 10.0 mi East 6.9 mph - N/A   Clear
2:15 PM 53.1 °F - 24.1 °F 32% 29.78 in 10.0 mi NNW 6.9 mph - N/A   Clear
2:35 PM 54.1 °F - 23.4 °F 30% 29.76 in 10.0 mi West 9.2 mph - N/A   Clear
2:55 PM 54.7 °F - 23.4 °F 30% 29.75 in 10.0 mi West 9.2 mph - N/A   Clear
3:15 PM 54.5 °F - 21.6 °F 28% 29.74 in 10.0 mi WNW 5.8 mph - N/A   Clear
3:35 PM 54.7 °F - 21.0 °F 27% 29.75 in 10.0 mi SSW 6.9 mph - N/A   Clear
3:55 PM 52.7 °F - 22.8 °F 31% 29.75 in 10.0 mi SW 9.2 mph - N/A   Clear
4:15 PM 51.3 °F - 22.1 °F 32% 29.75 in 10.0 mi SW 4.6 mph - N/A   Clear
4:35 PM 50.0 °F - 22.1 °F 33% 29.76 in 10.0 mi SW 10.4 mph 21.9 mph N/A   Clear
4:55 PM 48.7 °F - 25.7 °F 41% 29.75 in 10.0 mi WSW 4.6 mph - N/A   Clear
5:15 PM 47.1 °F - 28.4 °F 48% 29.74 in 10.0 mi Calm Calm - N/A   Clear
5:35 PM 47.3 °F - 26.1 °F 44% 29.73 in 10.0 mi Calm Calm - N/A   Scattered Clouds
5:55 PM 47.5 °F - 24.8 °F 41% 29.74 in 10.0 mi WSW 9.2 mph - N/A   Scattered Clouds
6:15 PM 45.5 °F - 26.6 °F 48% 29.73 in 10.0 mi Calm Calm - N/A   Mostly Cloudy
6:35 PM 42.1 °F 38.4 °F 27.9 °F 57% 29.73 in 10.0 mi WSW 5.8 mph - N/A   Mostly Cloudy
6:55 PM 40.5 °F - 29.5 °F 65% 29.74 in 10.0 mi Calm Calm - N/A   Overcast
7:15 PM 44.8 °F 42.4 °F 25.9 °F 48% 29.73 in 10.0 mi SE 4.6 mph - N/A   Overcast
7:35 PM 45.9 °F 43.6 °F 25.7 °F 45% 29.72 in 10.0 mi SE 4.6 mph - N/A   Overcast
7:55 PM 46.0 °F 43.9 °F 27.1 °F 48% 29.70 in 10.0 mi East 4.6 mph - N/A   Overcast
8:15 PM 45.3 °F 43.0 °F 27.3 °F 49% 29.72 in 10.0 mi SSW 4.6 mph - N/A   Overcast
8:35 PM 45.5 °F - 27.5 °F 49% 29.73 in 10.0 mi Calm Calm - N/A   Overcast
8:55 PM 45.3 °F 39.3 °F 27.7 °F 50% 29.74 in 10.0 mi WSW 12.7 mph 17.3 mph N/A Rain Rain
9:15 PM 43.3 °F 38.6 °F 31.1 °F 62% 29.74 in 7.0 mi West 8.1 mph 26.5 mph N/A Rain Light Rain
9:35 PM 41.4 °F 38.4 °F 32.7 °F 71% 29.73 in 10.0 mi SE 4.6 mph - N/A Rain Light Rain
9:55 PM 41.9 °F 39.0 °F 32.7 °F 70% 29.71 in 10.0 mi SSW 4.6 mph - N/A Rain Light Rain
10:15 PM 38.3 °F - 34.7 °F 87% 29.70 in 10.0 mi Calm Calm - N/A Rain Light Rain
10:35 PM 37.8 °F - 35.6 °F 92% 29.70 in 10.0 mi Calm Calm - 0.01 in Rain Light Rain
10:55 PM 37.0 °F - 35.1 °F 93% 29.68 in 7.0 mi Calm Calm - 0.01 in Rain Light Rain
11:15 PM 36.7 °F - 35.1 °F 94% 29.68 in 7.0 mi Calm Calm - 0.01 in Rain Light Rain
11:35 PM 36.5 °F - 35.2 °F 95% 29.68 in 5.0 mi Calm Calm - 0.01 in Rain Light Rain
11:55 PM 36.5 °F - 35.6 °F 97% 29.66 in 7.0 mi Calm Calm - 0.02 in Rain Rain